aviador You're here:

KEHO Decoded Metar

SHELBY MUNI in NC, USA
Report Time2018-04-24 13:40:00
UTC Time2018-04-24 13:56:08
Flight Rules ifr IFR
Wind060° at 07 Gusting to 15 kt
W.Decomp.*RWY 05: 6.7 kt HW 1.9 kt RCW
W.Rank060° ranks 14
Current wind is above 060° avg. (5.4)
Visibility4828 m
Phenomena:Rain
Clouds:Overcast 005 Hf
Ceiling500 ft
Temp14°C (ISA +1)
Dew Point14°C (100% RH)
AAT12.7°C
QNH1013 hPa
Density Alt1,145 ft
Elevation846 ft
Report Wrong Elevation
Raw Report
METAR KEHO 241340Z AUTO 06007G15KT 3SM RA OVC005 14/14 A2990 RMK AO2
P0001 T01410138=

Extra information for KEHO:More info

Metar Taf Metar & Taf Last 4 Metars F.Rules Stats Wind Profile Meteogram Temp Stats Airport Information Weather charts Add Link Nearby VenuesMetar ALERT Operation Metar Decoded Social comments

AIRNAV info for KEHO